sensor_id;sensor_type;location;lat;lon;timestamp;P1;durP1;ratioP1;P2;durP2;ratioP2
27275;SDS011;14772;47.398;8.080;2022-11-09T00:02:56;17.63;;;6.83;;
27275;SDS011;14772;47.398;8.080;2022-11-09T00:07:54;16.20;;;6.67;;
27275;SDS011;14772;47.398;8.080;2022-11-09T00:12:51;15.60;;;6.53;;
27275;SDS011;14772;47.398;8.080;2022-11-09T00:17:48;15.67;;;6.90;;
27275;SDS011;14772;47.398;8.080;2022-11-09T00:22:46;18.03;;;6.47;;
27275;SDS011;14772;47.398;8.080;2022-11-09T00:27:43;15.20;;;6.80;;
27275;SDS011;14772;47.398;8.080;2022-11-09T00:32:40;15.03;;;6.83;;
27275;SDS011;14772;47.398;8.080;2022-11-09T00:37:39;15.97;;;6.60;;
27275;SDS011;14772;47.398;8.080;2022-11-09T00:42:36;15.27;;;6.00;;
27275;SDS011;14772;47.398;8.080;2022-11-09T00:47:33;15.07;;;6.37;;
27275;SDS011;14772;47.398;8.080;2022-11-09T00:52:30;14.00;;;6.10;;
27275;SDS011;14772;47.398;8.080;2022-11-09T00:57:27;16.23;;;6.47;;
27275;SDS011;14772;47.398;8.080;2022-11-09T01:02:24;13.60;;;5.57;;
27275;SDS011;14772;47.398;8.080;2022-11-09T01:07:22;13.40;;;6.00;;
27275;SDS011;14772;47.398;8.080;2022-11-09T01:12:19;17.33;;;5.70;;
27275;SDS011;14772;47.398;8.080;2022-11-09T01:17:16;17.17;;;6.10;;
27275;SDS011;14772;47.398;8.080;2022-11-09T01:22:13;14.00;;;6.20;;
27275;SDS011;14772;47.398;8.080;2022-11-09T01:27:10;14.40;;;5.43;;
27275;SDS011;14772;47.398;8.080;2022-11-09T01:32:08;14.60;;;6.00;;
27275;SDS011;14772;47.398;8.080;2022-11-09T01:37:06;14.57;;;5.67;;
27275;SDS011;14772;47.398;8.080;2022-11-09T01:42:03;14.03;;;5.60;;
27275;SDS011;14772;47.398;8.080;2022-11-09T01:47:00;14.17;;;5.43;;
27275;SDS011;14772;47.398;8.080;2022-11-09T01:52:01;13.40;;;5.50;;
27275;SDS011;14772;47.398;8.080;2022-11-09T01:57:03;13.80;;;5.87;;
27275;SDS011;14772;47.398;8.080;2022-11-09T02:02:02;14.47;;;5.90;;
27275;SDS011;14772;47.398;8.080;2022-11-09T02:07:00;16.97;;;5.87;;
27275;SDS011;14772;47.398;8.080;2022-11-09T02:11:58;14.13;;;5.70;;
27275;SDS011;14772;47.398;8.080;2022-11-09T02:16:55;15.07;;;6.40;;
27275;SDS011;14772;47.398;8.080;2022-11-09T02:21:52;12.47;;;5.23;;
27275;SDS011;14772;47.398;8.080;2022-11-09T02:26:50;14.47;;;5.53;;
27275;SDS011;14772;47.398;8.080;2022-11-09T02:31:50;15.20;;;5.77;;
27275;SDS011;14772;47.398;8.080;2022-11-09T02:36:48;15.97;;;5.63;;
27275;SDS011;14772;47.398;8.080;2022-11-09T02:41:47;15.10;;;5.57;;
27275;SDS011;14772;47.398;8.080;2022-11-09T02:46:47;14.90;;;6.03;;
27275;SDS011;14772;47.398;8.080;2022-11-09T02:51:44;12.97;;;5.00;;
27275;SDS011;14772;47.398;8.080;2022-11-09T02:56:42;14.90;;;5.67;;
27275;SDS011;14772;47.398;8.080;2022-11-09T03:01:39;13.17;;;5.60;;
27275;SDS011;14772;47.398;8.080;2022-11-09T03:06:36;13.30;;;5.23;;
27275;SDS011;14772;47.398;8.080;2022-11-09T03:11:33;13.53;;;5.43;;
27275;SDS011;14772;47.398;8.080;2022-11-09T03:16:31;14.80;;;5.57;;
27275;SDS011;14772;47.398;8.080;2022-11-09T03:21:29;14.03;;;5.80;;
27275;SDS011;14772;47.398;8.080;2022-11-09T03:26:26;15.47;;;6.40;;
27275;SDS011;14772;47.398;8.080;2022-11-09T03:31:23;15.23;;;5.67;;
27275;SDS011;14772;47.398;8.080;2022-11-09T03:36:20;14.10;;;5.47;;
27275;SDS011;14772;47.398;8.080;2022-11-09T03:41:17;12.23;;;5.50;;
27275;SDS011;14772;47.398;8.080;2022-11-09T03:46:15;13.80;;;5.43;;
27275;SDS011;14772;47.398;8.080;2022-11-09T03:51:12;16.60;;;6.07;;
27275;SDS011;14772;47.398;8.080;2022-11-09T03:56:09;14.33;;;6.20;;
27275;SDS011;14772;47.398;8.080;2022-11-09T04:01:06;16.47;;;6.27;;
27275;SDS011;14772;47.398;8.080;2022-11-09T04:06:04;16.63;;;6.47;;
27275;SDS011;14772;47.398;8.080;2022-11-09T04:11:01;13.33;;;5.80;;
27275;SDS011;14772;47.398;8.080;2022-11-09T04:15:58;13.57;;;5.97;;
27275;SDS011;14772;47.398;8.080;2022-11-09T04:20:56;14.73;;;6.13;;
27275;SDS011;14772;47.398;8.080;2022-11-09T04:25:56;15.43;;;6.40;;
27275;SDS011;14772;47.398;8.080;2022-11-09T04:31:03;15.63;;;6.47;;
27275;SDS011;14772;47.398;8.080;2022-11-09T04:36:01;13.63;;;6.10;;
27275;SDS011;14772;47.398;8.080;2022-11-09T04:41:02;15.00;;;6.10;;
27275;SDS011;14772;47.398;8.080;2022-11-09T04:45:59;15.87;;;6.17;;
27275;SDS011;14772;47.398;8.080;2022-11-09T04:50:58;15.53;;;6.33;;
27275;SDS011;14772;47.398;8.080;2022-11-09T04:55:56;15.50;;;6.43;;
27275;SDS011;14772;47.398;8.080;2022-11-09T05:00:54;15.30;;;6.83;;
27275;SDS011;14772;47.398;8.080;2022-11-09T05:05:53;17.67;;;6.90;;
27275;SDS011;14772;47.398;8.080;2022-11-09T05:10:54;14.43;;;6.20;;
27275;SDS011;14772;47.398;8.080;2022-11-09T05:16:07;21.73;;;9.07;;
27275;SDS011;14772;47.398;8.080;2022-11-09T05:21:04;14.07;;;6.23;;
27275;SDS011;14772;47.398;8.080;2022-11-09T05:26:02;16.97;;;6.50;;
27275;SDS011;14772;47.398;8.080;2022-11-09T05:30:59;15.03;;;6.03;;
27275;SDS011;14772;47.398;8.080;2022-11-09T05:35:56;13.17;;;6.00;;
27275;SDS011;14772;47.398;8.080;2022-11-09T05:40:53;14.03;;;5.70;;
27275;SDS011;14772;47.398;8.080;2022-11-09T05:45:51;14.93;;;6.10;;
27275;SDS011;14772;47.398;8.080;2022-11-09T05:50:48;14.97;;;6.43;;
27275;SDS011;14772;47.398;8.080;2022-11-09T05:55:46;15.00;;;6.47;;
27275;SDS011;14772;47.398;8.080;2022-11-09T06:00:43;16.07;;;6.23;;
27275;SDS011;14772;47.398;8.080;2022-11-09T06:05:40;14.70;;;6.70;;
27275;SDS011;14772;47.398;8.080;2022-11-09T06:10:37;15.57;;;6.53;;
27275;SDS011;14772;47.398;8.080;2022-11-09T06:15:35;14.03;;;6.33;;
27275;SDS011;14772;47.398;8.080;2022-11-09T06:20:33;15.47;;;6.33;;
27275;SDS011;14772;47.398;8.080;2022-11-09T06:25:31;18.77;;;9.43;;
27275;SDS011;14772;47.398;8.080;2022-11-09T06:30:29;17.47;;;7.90;;
27275;SDS011;14772;47.398;8.080;2022-11-09T06:35:26;13.87;;;5.67;;
27275;SDS011;14772;47.398;8.080;2022-11-09T06:40:24;13.77;;;5.60;;
27275;SDS011;14772;47.398;8.080;2022-11-09T06:45:21;12.23;;;4.87;;
27275;SDS011;14772;47.398;8.080;2022-11-09T06:50:18;14.07;;;5.40;;
27275;SDS011;14772;47.398;8.080;2022-11-09T06:55:16;13.93;;;5.30;;
27275;SDS011;14772;47.398;8.080;2022-11-09T07:00:15;17.00;;;5.50;;
27275;SDS011;14772;47.398;8.080;2022-11-09T07:05:14;13.20;;;5.10;;
27275;SDS011;14772;47.398;8.080;2022-11-09T07:10:11;12.33;;;4.70;;
27275;SDS011;14772;47.398;8.080;2022-11-09T07:15:09;13.63;;;4.50;;
27275;SDS011;14772;47.398;8.080;2022-11-09T07:20:08;12.33;;;4.50;;
27275;SDS011;14772;47.398;8.080;2022-11-09T07:25:25;13.30;;;4.90;;
27275;SDS011;14772;47.398;8.080;2022-11-09T07:30:22;13.40;;;4.97;;
27275;SDS011;14772;47.398;8.080;2022-11-09T07:35:20;15.13;;;4.80;;
27275;SDS011;14772;47.398;8.080;2022-11-09T07:40:18;12.47;;;4.97;;
27275;SDS011;14772;47.398;8.080;2022-11-09T07:45:15;13.70;;;4.80;;
27275;SDS011;14772;47.398;8.080;2022-11-09T07:50:13;12.43;;;4.67;;
27275;SDS011;14772;47.398;8.080;2022-11-09T07:55:10;15.60;;;5.57;;
27275;SDS011;14772;47.398;8.080;2022-11-09T08:00:09;13.23;;;5.27;;
27275;SDS011;14772;47.398;8.080;2022-11-09T08:05:07;14.47;;;5.20;;
27275;SDS011;14772;47.398;8.080;2022-11-09T08:10:05;15.37;;;5.30;;
27275;SDS011;14772;47.398;8.080;2022-11-09T08:15:03;15.20;;;5.23;;
27275;SDS011;14772;47.398;8.080;2022-11-09T08:20:01;12.93;;;5.30;;
27275;SDS011;14772;47.398;8.080;2022-11-09T08:24:59;15.40;;;6.13;;
27275;SDS011;14772;47.398;8.080;2022-11-09T08:29:56;16.23;;;6.77;;
27275;SDS011;14772;47.398;8.080;2022-11-09T08:34:53;16.97;;;6.17;;
27275;SDS011;14772;47.398;8.080;2022-11-09T08:39:50;16.07;;;6.47;;
27275;SDS011;14772;47.398;8.080;2022-11-09T08:44:47;15.63;;;5.80;;
27275;SDS011;14772;47.398;8.080;2022-11-09T08:49:45;14.57;;;5.20;;
27275;SDS011;14772;47.398;8.080;2022-11-09T08:54:42;14.87;;;5.67;;
27275;SDS011;14772;47.398;8.080;2022-11-09T08:59:39;16.07;;;7.10;;
27275;SDS011;14772;47.398;8.080;2022-11-09T09:04:36;13.87;;;5.40;;
27275;SDS011;14772;47.398;8.080;2022-11-09T09:09:33;14.30;;;5.23;;
27275;SDS011;14772;47.398;8.080;2022-11-09T09:14:31;14.20;;;5.43;;
27275;SDS011;14772;47.398;8.080;2022-11-09T09:19:28;14.60;;;5.53;;
27275;SDS011;14772;47.398;8.080;2022-11-09T09:24:26;13.77;;;5.20;;
27275;SDS011;14772;47.398;8.080;2022-11-09T09:29:23;14.70;;;5.50;;
27275;SDS011;14772;47.398;8.080;2022-11-09T09:34:20;15.47;;;6.10;;
27275;SDS011;14772;47.398;8.080;2022-11-09T09:39:17;14.70;;;5.93;;
27275;SDS011;14772;47.398;8.080;2022-11-09T09:49:45;15.97;;;6.20;;
27275;SDS011;14772;47.398;8.080;2022-11-09T09:55:06;15.97;;;6.03;;
27275;SDS011;14772;47.398;8.080;2022-11-09T10:00:15;14.67;;;6.23;;
27275;SDS011;14772;47.398;8.080;2022-11-09T10:05:42;18.90;;;6.40;;
27275;SDS011;14772;47.398;8.080;2022-11-09T10:16:00;13.70;;;5.97;;
27275;SDS011;14772;47.398;8.080;2022-11-09T10:21:14;16.00;;;6.27;;
27275;SDS011;14772;47.398;8.080;2022-11-09T10:26:17;14.77;;;6.40;;
27275;SDS011;14772;47.398;8.080;2022-11-09T10:31:17;15.63;;;6.27;;
27275;SDS011;14772;47.398;8.080;2022-11-09T10:36:18;13.27;;;6.37;;
27275;SDS011;14772;47.398;8.080;2022-11-09T10:41:20;15.63;;;6.27;;
27275;SDS011;14772;47.398;8.080;2022-11-09T10:46:21;17.03;;;6.77;;
27275;SDS011;14772;47.398;8.080;2022-11-09T10:51:32;17.90;;;6.67;;
27275;SDS011;14772;47.398;8.080;2022-11-09T10:56:32;13.97;;;6.00;;
27275;SDS011;14772;47.398;8.080;2022-11-09T11:01:35;15.77;;;6.53;;
27275;SDS011;14772;47.398;8.080;2022-11-09T11:06:32;16.00;;;6.60;;
27275;SDS011;14772;47.398;8.080;2022-11-09T11:11:30;16.77;;;6.03;;
27275;SDS011;14772;47.398;8.080;2022-11-09T11:16:31;14.53;;;5.77;;
27275;SDS011;14772;47.398;8.080;2022-11-09T11:21:29;15.53;;;6.70;;
27275;SDS011;14772;47.398;8.080;2022-11-09T11:26:29;14.37;;;6.23;;
27275;SDS011;14772;47.398;8.080;2022-11-09T11:31:29;12.77;;;6.17;;
27275;SDS011;14772;47.398;8.080;2022-11-09T11:36:31;14.30;;;6.60;;
27275;SDS011;14772;47.398;8.080;2022-11-09T11:41:37;15.80;;;6.57;;
27275;SDS011;14772;47.398;8.080;2022-11-09T11:46:44;12.87;;;6.13;;
27275;SDS011;14772;47.398;8.080;2022-11-09T11:51:54;15.13;;;6.00;;
27275;SDS011;14772;47.398;8.080;2022-11-09T11:56:55;14.87;;;6.20;;
27275;SDS011;14772;47.398;8.080;2022-11-09T12:07:12;13.63;;;6.03;;
27275;SDS011;14772;47.398;8.080;2022-11-09T12:12:18;16.53;;;7.40;;
27275;SDS011;14772;47.398;8.080;2022-11-09T12:17:21;17.60;;;7.50;;
27275;SDS011;14772;47.398;8.080;2022-11-09T12:22:27;16.03;;;7.03;;
27275;SDS011;14772;47.398;8.080;2022-11-09T12:27:28;16.63;;;7.27;;
27275;SDS011;14772;47.398;8.080;2022-11-09T12:32:35;16.67;;;6.83;;
27275;SDS011;14772;47.398;8.080;2022-11-09T12:37:36;15.87;;;6.67;;
27275;SDS011;14772;47.398;8.080;2022-11-09T12:42:38;16.07;;;7.13;;
27275;SDS011;14772;47.398;8.080;2022-11-09T12:47:38;15.73;;;7.20;;
27275;SDS011;14772;47.398;8.080;2022-11-09T12:52:36;15.33;;;6.77;;
27275;SDS011;14772;47.398;8.080;2022-11-09T12:57:34;15.33;;;6.83;;
27275;SDS011;14772;47.398;8.080;2022-11-09T13:02:32;17.50;;;6.63;;
27275;SDS011;14772;47.398;8.080;2022-11-09T13:07:40;15.40;;;6.90;;
27275;SDS011;14772;47.398;8.080;2022-11-09T13:12:41;16.17;;;7.43;;
27275;SDS011;14772;47.398;8.080;2022-11-09T13:17:52;14.17;;;7.20;;
27275;SDS011;14772;47.398;8.080;2022-11-09T13:22:58;19.10;;;9.00;;
27275;SDS011;14772;47.398;8.080;2022-11-09T13:27:56;16.70;;;7.70;;
27275;SDS011;14772;47.398;8.080;2022-11-09T13:33:15;18.80;;;8.13;;
27275;SDS011;14772;47.398;8.080;2022-11-09T13:38:16;16.83;;;7.97;;
27275;SDS011;14772;47.398;8.080;2022-11-09T13:43:18;17.30;;;7.90;;
27275;SDS011;14772;47.398;8.080;2022-11-09T13:48:29;16.67;;;8.77;;
27275;SDS011;14772;47.398;8.080;2022-11-09T13:53:47;15.70;;;7.93;;
27275;SDS011;14772;47.398;8.080;2022-11-09T13:58:49;17.13;;;9.00;;
27275;SDS011;14772;47.398;8.080;2022-11-09T14:03:49;20.60;;;8.90;;
27275;SDS011;14772;47.398;8.080;2022-11-09T14:08:47;19.43;;;8.70;;
27275;SDS011;14772;47.398;8.080;2022-11-09T14:19:24;18.37;;;9.30;;
27275;SDS011;14772;47.398;8.080;2022-11-09T14:24:26;17.73;;;9.63;;
27275;SDS011;14772;47.398;8.080;2022-11-09T14:29:25;18.37;;;9.60;;
27275;SDS011;14772;47.398;8.080;2022-11-09T14:34:22;19.33;;;9.80;;
27275;SDS011;14772;47.398;8.080;2022-11-09T14:39:22;19.47;;;9.33;;
27275;SDS011;14772;47.398;8.080;2022-11-09T14:44:24;17.93;;;9.10;;
27275;SDS011;14772;47.398;8.080;2022-11-09T14:49:23;18.77;;;10.20;;
27275;SDS011;14772;47.398;8.080;2022-11-09T14:54:23;22.07;;;11.97;;
27275;SDS011;14772;47.398;8.080;2022-11-09T14:59:25;17.50;;;10.37;;
27275;SDS011;14772;47.398;8.080;2022-11-09T15:04:24;18.30;;;9.53;;
27275;SDS011;14772;47.398;8.080;2022-11-09T15:09:21;18.03;;;9.97;;
27275;SDS011;14772;47.398;8.080;2022-11-09T15:14:22;16.93;;;9.50;;
27275;SDS011;14772;47.398;8.080;2022-11-09T15:19:28;16.87;;;8.77;;
27275;SDS011;14772;47.398;8.080;2022-11-09T15:24:25;19.80;;;9.77;;
27275;SDS011;14772;47.398;8.080;2022-11-09T15:34:52;18.13;;;8.87;;
27275;SDS011;14772;47.398;8.080;2022-11-09T15:39:51;19.20;;;9.77;;
27275;SDS011;14772;47.398;8.080;2022-11-09T15:44:50;19.10;;;10.33;;
27275;SDS011;14772;47.398;8.080;2022-11-09T15:49:48;22.13;;;11.17;;
27275;SDS011;14772;47.398;8.080;2022-11-09T15:54:45;20.70;;;10.40;;
27275;SDS011;14772;47.398;8.080;2022-11-09T15:59:43;19.33;;;9.43;;
27275;SDS011;14772;47.398;8.080;2022-11-09T16:04:41;17.10;;;8.93;;
27275;SDS011;14772;47.398;8.080;2022-11-09T16:09:39;18.03;;;9.13;;
27275;SDS011;14772;47.398;8.080;2022-11-09T16:14:36;19.63;;;8.93;;
27275;SDS011;14772;47.398;8.080;2022-11-09T16:19:34;18.60;;;8.70;;
27275;SDS011;14772;47.398;8.080;2022-11-09T16:24:31;17.93;;;10.33;;
27275;SDS011;14772;47.398;8.080;2022-11-09T16:29:28;17.97;;;8.67;;
27275;SDS011;14772;47.398;8.080;2022-11-09T16:34:27;15.40;;;7.20;;
27275;SDS011;14772;47.398;8.080;2022-11-09T16:39:24;17.17;;;7.77;;
27275;SDS011;14772;47.398;8.080;2022-11-09T16:44:21;16.03;;;8.30;;
27275;SDS011;14772;47.398;8.080;2022-11-09T16:49:19;16.00;;;7.70;;
27275;SDS011;14772;47.398;8.080;2022-11-09T16:54:17;16.53;;;7.77;;
27275;SDS011;14772;47.398;8.080;2022-11-09T16:59:14;16.90;;;7.10;;
27275;SDS011;14772;47.398;8.080;2022-11-09T17:04:11;16.40;;;7.73;;
27275;SDS011;14772;47.398;8.080;2022-11-09T17:09:09;15.60;;;7.17;;
27275;SDS011;14772;47.398;8.080;2022-11-09T17:14:06;16.20;;;7.07;;
27275;SDS011;14772;47.398;8.080;2022-11-09T17:19:03;16.73;;;7.27;;
27275;SDS011;14772;47.398;8.080;2022-11-09T17:24:01;18.60;;;8.23;;
27275;SDS011;14772;47.398;8.080;2022-11-09T17:28:58;15.20;;;6.43;;
27275;SDS011;14772;47.398;8.080;2022-11-09T17:33:55;14.40;;;5.87;;
27275;SDS011;14772;47.398;8.080;2022-11-09T17:38:52;13.03;;;5.77;;
27275;SDS011;14772;47.398;8.080;2022-11-09T17:43:49;14.10;;;6.13;;
27275;SDS011;14772;47.398;8.080;2022-11-09T17:48:47;15.30;;;5.90;;
27275;SDS011;14772;47.398;8.080;2022-11-09T17:53:45;16.23;;;6.53;;
27275;SDS011;14772;47.398;8.080;2022-11-09T17:58:42;14.67;;;7.03;;
27275;SDS011;14772;47.398;8.080;2022-11-09T18:03:40;14.10;;;7.50;;
27275;SDS011;14772;47.398;8.080;2022-11-09T18:08:37;15.97;;;7.37;;
27275;SDS011;14772;47.398;8.080;2022-11-09T18:13:35;15.77;;;7.33;;
27275;SDS011;14772;47.398;8.080;2022-11-09T18:18:32;15.20;;;7.50;;
27275;SDS011;14772;47.398;8.080;2022-11-09T18:23:30;15.90;;;7.10;;
27275;SDS011;14772;47.398;8.080;2022-11-09T18:28:28;17.50;;;8.83;;
27275;SDS011;14772;47.398;8.080;2022-11-09T18:33:26;16.53;;;8.00;;
27275;SDS011;14772;47.398;8.080;2022-11-09T18:38:24;15.03;;;7.80;;
27275;SDS011;14772;47.398;8.080;2022-11-09T18:43:21;15.57;;;7.70;;
27275;SDS011;14772;47.398;8.080;2022-11-09T18:48:18;17.73;;;10.50;;
27275;SDS011;14772;47.398;8.080;2022-11-09T18:53:16;17.50;;;9.33;;
27275;SDS011;14772;47.398;8.080;2022-11-09T18:58:13;19.17;;;10.70;;
27275;SDS011;14772;47.398;8.080;2022-11-09T19:03:12;16.57;;;9.33;;
27275;SDS011;14772;47.398;8.080;2022-11-09T19:08:10;16.87;;;7.90;;
27275;SDS011;14772;47.398;8.080;2022-11-09T19:13:07;17.43;;;7.97;;
27275;SDS011;14772;47.398;8.080;2022-11-09T19:18:04;16.63;;;8.50;;
27275;SDS011;14772;47.398;8.080;2022-11-09T19:23:01;17.97;;;8.60;;
27275;SDS011;14772;47.398;8.080;2022-11-09T19:27:59;16.17;;;8.30;;
27275;SDS011;14772;47.398;8.080;2022-11-09T19:32:56;17.07;;;8.10;;
27275;SDS011;14772;47.398;8.080;2022-11-09T19:37:53;16.23;;;7.87;;
27275;SDS011;14772;47.398;8.080;2022-11-09T19:42:51;14.20;;;7.03;;
27275;SDS011;14772;47.398;8.080;2022-11-09T19:47:48;15.47;;;6.83;;
27275;SDS011;14772;47.398;8.080;2022-11-09T19:52:46;13.40;;;5.43;;
27275;SDS011;14772;47.398;8.080;2022-11-09T19:57:43;13.47;;;5.67;;
27275;SDS011;14772;47.398;8.080;2022-11-09T20:02:40;14.67;;;6.80;;
27275;SDS011;14772;47.398;8.080;2022-11-09T20:07:37;15.30;;;7.10;;
27275;SDS011;14772;47.398;8.080;2022-11-09T20:12:35;14.30;;;6.50;;
27275;SDS011;14772;47.398;8.080;2022-11-09T20:17:32;13.20;;;5.93;;
27275;SDS011;14772;47.398;8.080;2022-11-09T20:22:29;13.03;;;4.53;;
27275;SDS011;14772;47.398;8.080;2022-11-09T20:27:27;14.10;;;5.20;;
27275;SDS011;14772;47.398;8.080;2022-11-09T20:32:24;11.40;;;4.77;;
27275;SDS011;14772;47.398;8.080;2022-11-09T20:37:22;12.47;;;4.90;;
27275;SDS011;14772;47.398;8.080;2022-11-09T20:42:19;14.87;;;4.90;;
27275;SDS011;14772;47.398;8.080;2022-11-09T20:47:16;12.27;;;4.93;;
27275;SDS011;14772;47.398;8.080;2022-11-09T20:52:13;11.37;;;4.40;;
27275;SDS011;14772;47.398;8.080;2022-11-09T20:57:10;10.43;;;4.00;;
27275;SDS011;14772;47.398;8.080;2022-11-09T21:02:09;13.07;;;4.40;;
27275;SDS011;14772;47.398;8.080;2022-11-09T21:07:18;10.53;;;3.90;;
27275;SDS011;14772;47.398;8.080;2022-11-09T21:12:15;12.27;;;3.93;;
27275;SDS011;14772;47.398;8.080;2022-11-09T21:17:12;11.90;;;4.50;;
27275;SDS011;14772;47.398;8.080;2022-11-09T21:22:10;12.40;;;4.80;;
27275;SDS011;14772;47.398;8.080;2022-11-09T21:27:09;11.63;;;4.30;;
27275;SDS011;14772;47.398;8.080;2022-11-09T21:32:06;11.97;;;4.60;;
27275;SDS011;14772;47.398;8.080;2022-11-09T21:37:04;13.27;;;4.67;;
27275;SDS011;14772;47.398;8.080;2022-11-09T21:42:02;11.57;;;4.43;;
27275;SDS011;14772;47.398;8.080;2022-11-09T21:46:59;11.20;;;4.40;;
27275;SDS011;14772;47.398;8.080;2022-11-09T21:51:58;11.00;;;4.40;;
27275;SDS011;14772;47.398;8.080;2022-11-09T21:56:55;11.97;;;4.73;;
27275;SDS011;14772;47.398;8.080;2022-11-09T22:01:53;12.80;;;4.80;;
27275;SDS011;14772;47.398;8.080;2022-11-09T22:06:50;12.03;;;5.07;;
27275;SDS011;14772;47.398;8.080;2022-11-09T22:11:47;12.03;;;4.80;;
27275;SDS011;14772;47.398;8.080;2022-11-09T22:16:44;11.67;;;4.77;;
27275;SDS011;14772;47.398;8.080;2022-11-09T22:21:41;13.17;;;6.30;;
27275;SDS011;14772;47.398;8.080;2022-11-09T22:26:39;13.17;;;6.03;;
27275;SDS011;14772;47.398;8.080;2022-11-09T22:31:36;13.13;;;6.47;;
27275;SDS011;14772;47.398;8.080;2022-11-09T22:36:33;14.00;;;6.20;;
27275;SDS011;14772;47.398;8.080;2022-11-09T22:41:30;15.90;;;6.47;;
27275;SDS011;14772;47.398;8.080;2022-11-09T22:46:27;12.80;;;5.73;;
27275;SDS011;14772;47.398;8.080;2022-11-09T22:51:24;12.87;;;5.87;;
27275;SDS011;14772;47.398;8.080;2022-11-09T22:56:22;15.33;;;6.33;;
27275;SDS011;14772;47.398;8.080;2022-11-09T23:01:19;14.10;;;6.20;;
27275;SDS011;14772;47.398;8.080;2022-11-09T23:06:18;12.90;;;6.03;;
27275;SDS011;14772;47.398;8.080;2022-11-09T23:11:17;12.60;;;6.17;;
27275;SDS011;14772;47.398;8.080;2022-11-09T23:16:15;14.37;;;6.23;;
27275;SDS011;14772;47.398;8.080;2022-11-09T23:21:13;14.73;;;6.10;;
27275;SDS011;14772;47.398;8.080;2022-11-09T23:26:10;13.47;;;5.70;;
27275;SDS011;14772;47.398;8.080;2022-11-09T23:31:08;12.53;;;5.87;;
27275;SDS011;14772;47.398;8.080;2022-11-09T23:36:07;14.67;;;6.07;;
27275;SDS011;14772;47.398;8.080;2022-11-09T23:41:06;13.47;;;6.50;;
27275;SDS011;14772;47.398;8.080;2022-11-09T23:46:05;13.17;;;6.40;;
27275;SDS011;14772;47.398;8.080;2022-11-09T23:51:03;13.50;;;6.13;;
27275;SDS011;14772;47.398;8.080;2022-11-09T23:56:02;13.87;;;6.30;;
